sensor_id;sensor_type;location;lat;lon;timestamp;P1;durP1;ratioP1;P2;durP2;ratioP2
67721;SDS011;58309;45.292;11.820;2024-02-14T00:02:14;80.30;;;37.88;;
67721;SDS011;58309;45.292;11.820;2024-02-14T00:04:40;82.15;;;37.78;;
67721;SDS011;58309;45.292;11.820;2024-02-14T00:07:05;78.35;;;38.20;;
67721;SDS011;58309;45.292;11.820;2024-02-14T00:09:31;80.60;;;39.00;;
67721;SDS011;58309;45.292;11.820;2024-02-14T00:11:57;80.65;;;38.05;;
67721;SDS011;58309;45.292;11.820;2024-02-14T00:14:22;78.35;;;37.83;;
67721;SDS011;58309;45.292;11.820;2024-02-14T00:16:48;72.30;;;36.45;;
67721;SDS011;58309;45.292;11.820;2024-02-14T00:19:14;71.03;;;32.92;;
67721;SDS011;58309;45.292;11.820;2024-02-14T00:21:40;67.47;;;32.80;;
67721;SDS011;58309;45.292;11.820;2024-02-14T00:24:05;62.28;;;33.38;;
67721;SDS011;58309;45.292;11.820;2024-02-14T00:26:31;72.57;;;36.33;;
67721;SDS011;58309;45.292;11.820;2024-02-14T00:28:56;66.20;;;31.73;;
67721;SDS011;58309;45.292;11.820;2024-02-14T00:31:22;54.65;;;29.85;;
67721;SDS011;58309;45.292;11.820;2024-02-14T00:33:47;64.05;;;28.42;;
67721;SDS011;58309;45.292;11.820;2024-02-14T00:36:13;57.83;;;29.05;;
67721;SDS011;58309;45.292;11.820;2024-02-14T00:38:38;63.42;;;31.52;;
67721;SDS011;58309;45.292;11.820;2024-02-14T00:41:03;64.78;;;30.92;;
67721;SDS011;58309;45.292;11.820;2024-02-14T00:43:29;58.55;;;27.50;;
67721;SDS011;58309;45.292;11.820;2024-02-14T00:45:55;63.88;;;32.90;;
67721;SDS011;58309;45.292;11.820;2024-02-14T00:48:22;68.85;;;33.63;;
67721;SDS011;58309;45.292;11.820;2024-02-14T00:50:48;67.45;;;32.28;;
67721;SDS011;58309;45.292;11.820;2024-02-14T00:53:13;65.63;;;32.08;;
67721;SDS011;58309;45.292;11.820;2024-02-14T00:55:39;62.38;;;31.23;;
67721;SDS011;58309;45.292;11.820;2024-02-14T00:58:04;65.60;;;32.10;;
67721;SDS011;58309;45.292;11.820;2024-02-14T01:00:30;57.67;;;31.02;;
67721;SDS011;58309;45.292;11.820;2024-02-14T01:02:57;62.30;;;31.83;;
67721;SDS011;58309;45.292;11.820;2024-02-14T01:05:23;67.18;;;34.30;;
67721;SDS011;58309;45.292;11.820;2024-02-14T01:07:49;74.13;;;35.85;;
67721;SDS011;58309;45.292;11.820;2024-02-14T01:10:14;80.28;;;39.00;;
67721;SDS011;58309;45.292;11.820;2024-02-14T01:12:39;84.38;;;41.30;;
67721;SDS011;58309;45.292;11.820;2024-02-14T01:15:05;80.00;;;41.80;;
67721;SDS011;58309;45.292;11.820;2024-02-14T01:17:31;90.47;;;45.25;;
67721;SDS011;58309;45.292;11.820;2024-02-14T01:19:57;99.40;;;44.55;;
67721;SDS011;58309;45.292;11.820;2024-02-14T01:22:23;91.68;;;41.65;;
67721;SDS011;58309;45.292;11.820;2024-02-14T01:24:49;80.68;;;42.35;;
67721;SDS011;58309;45.292;11.820;2024-02-14T01:27:14;78.15;;;39.67;;
67721;SDS011;58309;45.292;11.820;2024-02-14T01:29:41;81.03;;;40.97;;
67721;SDS011;58309;45.292;11.820;2024-02-14T01:32:07;78.05;;;39.28;;
67721;SDS011;58309;45.292;11.820;2024-02-14T01:34:34;76.57;;;38.08;;
67721;SDS011;58309;45.292;11.820;2024-02-14T01:37:00;69.15;;;36.00;;
67721;SDS011;58309;45.292;11.820;2024-02-14T01:39:25;70.60;;;33.40;;
67721;SDS011;58309;45.292;11.820;2024-02-14T01:41:51;69.30;;;33.63;;
67721;SDS011;58309;45.292;11.820;2024-02-14T01:44:16;79.82;;;36.60;;
67721;SDS011;58309;45.292;11.820;2024-02-14T01:46:43;84.93;;;37.08;;
67721;SDS011;58309;45.292;11.820;2024-02-14T01:49:11;69.72;;;35.85;;
67721;SDS011;58309;45.292;11.820;2024-02-14T01:51:37;77.88;;;35.92;;
67721;SDS011;58309;45.292;11.820;2024-02-14T01:54:04;79.55;;;34.53;;
67721;SDS011;58309;45.292;11.820;2024-02-14T01:56:31;75.65;;;34.50;;
67721;SDS011;58309;45.292;11.820;2024-02-14T01:58:57;77.63;;;35.15;;
67721;SDS011;58309;45.292;11.820;2024-02-14T02:01:24;69.57;;;31.50;;
67721;SDS011;58309;45.292;11.820;2024-02-14T02:03:50;76.28;;;32.28;;
67721;SDS011;58309;45.292;11.820;2024-02-14T02:06:15;73.18;;;34.15;;
67721;SDS011;58309;45.292;11.820;2024-02-14T02:08:44;69.63;;;36.08;;
67721;SDS011;58309;45.292;11.820;2024-02-14T02:11:10;68.30;;;34.58;;
67721;SDS011;58309;45.292;11.820;2024-02-14T02:13:36;58.53;;;31.60;;
67721;SDS011;58309;45.292;11.820;2024-02-14T02:16:04;62.03;;;29.58;;
67721;SDS011;58309;45.292;11.820;2024-02-14T02:18:30;67.55;;;29.45;;
67721;SDS011;58309;45.292;11.820;2024-02-14T02:20:57;66.28;;;28.13;;
67721;SDS011;58309;45.292;11.820;2024-02-14T02:23:22;59.22;;;27.42;;
67721;SDS011;58309;45.292;11.820;2024-02-14T02:25:48;70.72;;;29.50;;
67721;SDS011;58309;45.292;11.820;2024-02-14T02:28:14;52.83;;;28.45;;
67721;SDS011;58309;45.292;11.820;2024-02-14T02:30:39;65.35;;;29.95;;
67721;SDS011;58309;45.292;11.820;2024-02-14T02:33:05;63.08;;;28.55;;
67721;SDS011;58309;45.292;11.820;2024-02-14T02:35:32;66.38;;;27.73;;
67721;SDS011;58309;45.292;11.820;2024-02-14T02:37:58;63.38;;;29.05;;
67721;SDS011;58309;45.292;11.820;2024-02-14T02:40:24;57.65;;;28.48;;
67721;SDS011;58309;45.292;11.820;2024-02-14T02:42:49;76.00;;;30.33;;
67721;SDS011;58309;45.292;11.820;2024-02-14T02:45:16;55.30;;;28.63;;
67721;SDS011;58309;45.292;11.820;2024-02-14T02:47:41;64.35;;;29.42;;
67721;SDS011;58309;45.292;11.820;2024-02-14T02:50:07;63.13;;;29.38;;
67721;SDS011;58309;45.292;11.820;2024-02-14T02:52:33;61.55;;;27.83;;
67721;SDS011;58309;45.292;11.820;2024-02-14T02:54:59;70.38;;;29.80;;
67721;SDS011;58309;45.292;11.820;2024-02-14T02:57:26;59.92;;;28.42;;
67721;SDS011;58309;45.292;11.820;2024-02-14T02:59:52;62.55;;;27.27;;
67721;SDS011;58309;45.292;11.820;2024-02-14T03:02:18;58.20;;;28.67;;
67721;SDS011;58309;45.292;11.820;2024-02-14T03:04:44;57.38;;;26.90;;
67721;SDS011;58309;45.292;11.820;2024-02-14T03:07:10;56.33;;;26.75;;
67721;SDS011;58309;45.292;11.820;2024-02-14T03:09:36;58.90;;;28.13;;
67721;SDS011;58309;45.292;11.820;2024-02-14T03:12:02;58.85;;;28.42;;
67721;SDS011;58309;45.292;11.820;2024-02-14T03:14:30;58.25;;;27.35;;
67721;SDS011;58309;45.292;11.820;2024-02-14T03:17:00;61.20;;;28.00;;
67721;SDS011;58309;45.292;11.820;2024-02-14T03:19:27;64.80;;;27.88;;
67721;SDS011;58309;45.292;11.820;2024-02-14T03:21:53;65.53;;;27.73;;
67721;SDS011;58309;45.292;11.820;2024-02-14T03:24:19;65.47;;;29.00;;
67721;SDS011;58309;45.292;11.820;2024-02-14T03:26:45;66.13;;;29.13;;
67721;SDS011;58309;45.292;11.820;2024-02-14T03:29:11;73.82;;;29.88;;
67721;SDS011;58309;45.292;11.820;2024-02-14T03:31:37;62.42;;;26.35;;
67721;SDS011;58309;45.292;11.820;2024-02-14T03:34:02;71.28;;;29.38;;
67721;SDS011;58309;45.292;11.820;2024-02-14T03:36:28;87.93;;;32.45;;
67721;SDS011;58309;45.292;11.820;2024-02-14T03:38:58;74.55;;;32.38;;
67721;SDS011;58309;45.292;11.820;2024-02-14T03:41:30;81.18;;;34.40;;
67721;SDS011;58309;45.292;11.820;2024-02-14T03:43:55;92.80;;;35.75;;
67721;SDS011;58309;45.292;11.820;2024-02-14T03:46:25;101.90;;;39.40;;
67721;SDS011;58309;45.292;11.820;2024-02-14T03:48:54;91.53;;;36.25;;
67721;SDS011;58309;45.292;11.820;2024-02-14T03:51:20;84.65;;;34.90;;
67721;SDS011;58309;45.292;11.820;2024-02-14T03:53:46;93.82;;;37.75;;
67721;SDS011;58309;45.292;11.820;2024-02-14T03:56:12;102.32;;;38.17;;
67721;SDS011;58309;45.292;11.820;2024-02-14T03:58:39;89.28;;;35.97;;
67721;SDS011;58309;45.292;11.820;2024-02-14T04:01:05;89.38;;;35.33;;
67721;SDS011;58309;45.292;11.820;2024-02-14T04:03:30;85.07;;;37.22;;
67721;SDS011;58309;45.292;11.820;2024-02-14T04:05:56;93.18;;;38.85;;
67721;SDS011;58309;45.292;11.820;2024-02-14T04:08:22;97.05;;;37.88;;
67721;SDS011;58309;45.292;11.820;2024-02-14T04:10:47;79.60;;;34.85;;
67721;SDS011;58309;45.292;11.820;2024-02-14T04:13:15;81.05;;;35.67;;
67721;SDS011;58309;45.292;11.820;2024-02-14T04:15:41;87.55;;;35.53;;
67721;SDS011;58309;45.292;11.820;2024-02-14T04:18:08;72.38;;;33.35;;
67721;SDS011;58309;45.292;11.820;2024-02-14T04:20:34;77.90;;;33.83;;
67721;SDS011;58309;45.292;11.820;2024-02-14T04:22:59;78.35;;;34.60;;
67721;SDS011;58309;45.292;11.820;2024-02-14T04:25:25;83.28;;;35.72;;
67721;SDS011;58309;45.292;11.820;2024-02-14T04:27:51;61.75;;;32.00;;
67721;SDS011;58309;45.292;11.820;2024-02-14T04:30:16;78.32;;;33.25;;
67721;SDS011;58309;45.292;11.820;2024-02-14T04:32:42;81.55;;;35.90;;
67721;SDS011;58309;45.292;11.820;2024-02-14T04:35:08;71.97;;;34.90;;
67721;SDS011;58309;45.292;11.820;2024-02-14T04:37:34;77.18;;;35.92;;
67721;SDS011;58309;45.292;11.820;2024-02-14T04:39:59;72.03;;;35.33;;
67721;SDS011;58309;45.292;11.820;2024-02-14T04:42:25;70.20;;;33.85;;
67721;SDS011;58309;45.292;11.820;2024-02-14T04:44:50;61.30;;;32.80;;
67721;SDS011;58309;45.292;11.820;2024-02-14T04:47:16;59.72;;;31.83;;
67721;SDS011;58309;45.292;11.820;2024-02-14T04:49:42;57.25;;;30.13;;
67721;SDS011;58309;45.292;11.820;2024-02-14T04:52:07;62.55;;;30.83;;
67721;SDS011;58309;45.292;11.820;2024-02-14T04:54:33;51.42;;;29.55;;
67721;SDS011;58309;45.292;11.820;2024-02-14T04:56:59;54.00;;;29.20;;
67721;SDS011;58309;45.292;11.820;2024-02-14T04:59:24;54.88;;;27.77;;
67721;SDS011;58309;45.292;11.820;2024-02-14T05:01:50;57.80;;;29.77;;
67721;SDS011;58309;45.292;11.820;2024-02-14T05:04:16;50.50;;;27.20;;
67721;SDS011;58309;45.292;11.820;2024-02-14T05:06:42;51.00;;;29.42;;
67721;SDS011;58309;45.292;11.820;2024-02-14T05:09:08;51.33;;;27.85;;
67721;SDS011;58309;45.292;11.820;2024-02-14T05:11:36;47.47;;;26.45;;
67721;SDS011;58309;45.292;11.820;2024-02-14T05:14:02;51.45;;;26.77;;
67721;SDS011;58309;45.292;11.820;2024-02-14T05:16:28;51.72;;;27.88;;
67721;SDS011;58309;45.292;11.820;2024-02-14T05:18:54;49.58;;;26.80;;
67721;SDS011;58309;45.292;11.820;2024-02-14T05:21:20;46.85;;;27.42;;
67721;SDS011;58309;45.292;11.820;2024-02-14T05:23:46;51.30;;;29.65;;
67721;SDS011;58309;45.292;11.820;2024-02-14T05:26:12;42.95;;;26.63;;
67721;SDS011;58309;45.292;11.820;2024-02-14T05:28:37;46.92;;;27.42;;
67721;SDS011;58309;45.292;11.820;2024-02-14T05:31:03;43.05;;;26.25;;
67721;SDS011;58309;45.292;11.820;2024-02-14T05:33:28;45.60;;;26.15;;
67721;SDS011;58309;45.292;11.820;2024-02-14T05:35:54;46.22;;;27.60;;
67721;SDS011;58309;45.292;11.820;2024-02-14T05:38:19;53.55;;;26.83;;
67721;SDS011;58309;45.292;11.820;2024-02-14T05:40:48;42.15;;;26.38;;
67721;SDS011;58309;45.292;11.820;2024-02-14T05:43:14;50.38;;;27.70;;
67721;SDS011;58309;45.292;11.820;2024-02-14T05:45:40;43.72;;;25.83;;
67721;SDS011;58309;45.292;11.820;2024-02-14T05:48:06;51.67;;;27.98;;
67721;SDS011;58309;45.292;11.820;2024-02-14T05:50:33;44.95;;;25.52;;
67721;SDS011;58309;45.292;11.820;2024-02-14T05:52:59;39.55;;;23.50;;
67721;SDS011;58309;45.292;11.820;2024-02-14T05:55:25;34.10;;;22.40;;
67721;SDS011;58309;45.292;11.820;2024-02-14T05:57:51;37.17;;;23.05;;
67721;SDS011;58309;45.292;11.820;2024-02-14T06:00:17;39.33;;;22.90;;
67721;SDS011;58309;45.292;11.820;2024-02-14T06:02:45;33.70;;;21.08;;
67721;SDS011;58309;45.292;11.820;2024-02-14T06:05:12;39.35;;;21.67;;
67721;SDS011;58309;45.292;11.820;2024-02-14T06:07:38;35.22;;;20.73;;
67721;SDS011;58309;45.292;11.820;2024-02-14T06:10:05;34.53;;;20.35;;
67721;SDS011;58309;45.292;11.820;2024-02-14T06:12:31;32.97;;;21.08;;
67721;SDS011;58309;45.292;11.820;2024-02-14T06:14:58;32.47;;;20.80;;
67721;SDS011;58309;45.292;11.820;2024-02-14T06:17:23;30.92;;;19.58;;
67721;SDS011;58309;45.292;11.820;2024-02-14T06:19:49;30.50;;;19.45;;
67721;SDS011;58309;45.292;11.820;2024-02-14T06:22:14;30.13;;;19.25;;
67721;SDS011;58309;45.292;11.820;2024-02-14T06:24:40;30.77;;;19.00;;
67721;SDS011;58309;45.292;11.820;2024-02-14T06:27:06;33.97;;;20.13;;
67721;SDS011;58309;45.292;11.820;2024-02-14T06:29:31;29.13;;;18.90;;
67721;SDS011;58309;45.292;11.820;2024-02-14T06:31:57;29.48;;;18.20;;
67721;SDS011;58309;45.292;11.820;2024-02-14T06:34:22;28.13;;;19.42;;
67721;SDS011;58309;45.292;11.820;2024-02-14T06:36:48;33.17;;;19.75;;
67721;SDS011;58309;45.292;11.820;2024-02-14T06:39:13;28.77;;;18.83;;
67721;SDS011;58309;45.292;11.820;2024-02-14T06:41:38;29.58;;;18.92;;
67721;SDS011;58309;45.292;11.820;2024-02-14T06:44:05;34.78;;;19.55;;
67721;SDS011;58309;45.292;11.820;2024-02-14T06:46:30;29.25;;;19.30;;
67721;SDS011;58309;45.292;11.820;2024-02-14T06:48:56;30.55;;;19.10;;
67721;SDS011;58309;45.292;11.820;2024-02-14T06:51:22;35.92;;;19.67;;
67721;SDS011;58309;45.292;11.820;2024-02-14T06:53:48;30.90;;;18.13;;
67721;SDS011;58309;45.292;11.820;2024-02-14T06:56:15;26.58;;;17.75;;
67721;SDS011;58309;45.292;11.820;2024-02-14T06:58:40;26.20;;;16.52;;
67721;SDS011;58309;45.292;11.820;2024-02-14T07:01:05;29.88;;;18.17;;
67721;SDS011;58309;45.292;11.820;2024-02-14T07:03:31;27.15;;;18.60;;
67721;SDS011;58309;45.292;11.820;2024-02-14T07:05:57;31.52;;;20.83;;
67721;SDS011;58309;45.292;11.820;2024-02-14T07:08:22;34.88;;;23.15;;
67721;SDS011;58309;45.292;11.820;2024-02-14T07:10:48;31.92;;;21.13;;
67721;SDS011;58309;45.292;11.820;2024-02-14T07:13:14;24.23;;;17.48;;
67721;SDS011;58309;45.292;11.820;2024-02-14T07:15:39;24.75;;;16.48;;
67721;SDS011;58309;45.292;11.820;2024-02-14T07:18:05;23.15;;;15.15;;
67721;SDS011;58309;45.292;11.820;2024-02-14T07:20:33;21.95;;;14.30;;
67721;SDS011;58309;45.292;11.820;2024-02-14T07:22:58;21.58;;;14.25;;
67721;SDS011;58309;45.292;11.820;2024-02-14T07:25:24;19.55;;;13.23;;
67721;SDS011;58309;45.292;11.820;2024-02-14T07:27:49;18.42;;;12.95;;
67721;SDS011;58309;45.292;11.820;2024-02-14T07:30:15;18.85;;;12.90;;
67721;SDS011;58309;45.292;11.820;2024-02-14T07:32:42;23.70;;;13.60;;
67721;SDS011;58309;45.292;11.820;2024-02-14T07:35:09;25.63;;;14.85;;
67721;SDS011;58309;45.292;11.820;2024-02-14T07:37:34;21.67;;;12.45;;
67721;SDS011;58309;45.292;11.820;2024-02-14T07:40:00;22.55;;;13.98;;
67721;SDS011;58309;45.292;11.820;2024-02-14T07:42:25;21.75;;;12.63;;
67721;SDS011;58309;45.292;11.820;2024-02-14T07:44:50;19.88;;;12.52;;
67721;SDS011;58309;45.292;11.820;2024-02-14T07:47:16;17.95;;;11.95;;
67721;SDS011;58309;45.292;11.820;2024-02-14T07:49:41;17.95;;;11.75;;
67721;SDS011;58309;45.292;11.820;2024-02-14T07:52:07;19.38;;;11.30;;
67721;SDS011;58309;45.292;11.820;2024-02-14T07:54:32;19.00;;;10.93;;
67721;SDS011;58309;45.292;11.820;2024-02-14T07:56:58;14.77;;;9.80;;
67721;SDS011;58309;45.292;11.820;2024-02-14T07:59:23;16.80;;;10.73;;
67721;SDS011;58309;45.292;11.820;2024-02-14T08:01:49;16.45;;;10.27;;
67721;SDS011;58309;45.292;11.820;2024-02-14T08:04:14;17.95;;;9.88;;
67721;SDS011;58309;45.292;11.820;2024-02-14T08:06:40;16.92;;;10.05;;
67721;SDS011;58309;45.292;11.820;2024-02-14T08:09:06;16.02;;;9.82;;
67721;SDS011;58309;45.292;11.820;2024-02-14T08:11:34;15.90;;;9.88;;
67721;SDS011;58309;45.292;11.820;2024-02-14T08:14:00;14.88;;;9.40;;
67721;SDS011;58309;45.292;11.820;2024-02-14T08:16:26;13.10;;;9.45;;
67721;SDS011;58309;45.292;11.820;2024-02-14T08:18:51;11.93;;;8.57;;
67721;SDS011;58309;45.292;11.820;2024-02-14T08:21:23;13.07;;;7.95;;
67721;SDS011;58309;45.292;11.820;2024-02-14T08:23:55;13.82;;;7.75;;
67721;SDS011;58309;45.292;11.820;2024-02-14T08:26:21;12.40;;;8.15;;
67721;SDS011;58309;45.292;11.820;2024-02-14T08:28:47;15.00;;;8.70;;
67721;SDS011;58309;45.292;11.820;2024-02-14T08:31:14;12.52;;;8.77;;
67721;SDS011;58309;45.292;11.820;2024-02-14T08:33:39;13.70;;;8.48;;
67721;SDS011;58309;45.292;11.820;2024-02-14T08:36:05;11.40;;;7.82;;
67721;SDS011;58309;45.292;11.820;2024-02-14T08:38:31;13.10;;;8.50;;
67721;SDS011;58309;45.292;11.820;2024-02-14T08:40:58;12.55;;;8.48;;
67721;SDS011;58309;45.292;11.820;2024-02-14T08:43:23;13.68;;;8.10;;
67721;SDS011;58309;45.292;11.820;2024-02-14T08:45:53;10.25;;;8.27;;
67721;SDS011;58309;45.292;11.820;2024-02-14T08:48:19;11.25;;;8.50;;
67721;SDS011;58309;45.292;11.820;2024-02-14T08:50:46;11.80;;;8.18;;
67721;SDS011;58309;45.292;11.820;2024-02-14T08:53:12;11.48;;;7.10;;
67721;SDS011;58309;45.292;11.820;2024-02-14T08:55:39;8.88;;;7.30;;
67721;SDS011;58309;45.292;11.820;2024-02-14T08:58:05;12.60;;;6.97;;
67721;SDS011;58309;45.292;11.820;2024-02-14T09:00:31;8.57;;;6.97;;
67721;SDS011;58309;45.292;11.820;2024-02-14T09:02:56;9.05;;;6.63;;
67721;SDS011;58309;45.292;11.820;2024-02-14T09:05:25;9.48;;;6.40;;
67721;SDS011;58309;45.292;11.820;2024-02-14T09:07:50;7.78;;;6.15;;
67721;SDS011;58309;45.292;11.820;2024-02-14T09:10:16;8.75;;;6.22;;
67721;SDS011;58309;45.292;11.820;2024-02-14T09:12:42;9.38;;;6.45;;
67721;SDS011;58309;45.292;11.820;2024-02-14T09:15:07;10.98;;;6.95;;
67721;SDS011;58309;45.292;11.820;2024-02-14T09:17:33;7.15;;;6.10;;
67721;SDS011;58309;45.292;11.820;2024-02-14T09:19:59;10.07;;;5.80;;
67721;SDS011;58309;45.292;11.820;2024-02-14T09:22:24;10.02;;;6.47;;
67721;SDS011;58309;45.292;11.820;2024-02-14T09:24:50;9.48;;;6.32;;
67721;SDS011;58309;45.292;11.820;2024-02-14T09:27:16;8.90;;;6.35;;
67721;SDS011;58309;45.292;11.820;2024-02-14T09:29:41;7.95;;;6.65;;
67721;SDS011;58309;45.292;11.820;2024-02-14T09:32:07;8.13;;;6.13;;
67721;SDS011;58309;45.292;11.820;2024-02-14T09:34:33;8.43;;;6.63;;
67721;SDS011;58309;45.292;11.820;2024-02-14T09:36:59;9.38;;;6.65;;
67721;SDS011;58309;45.292;11.820;2024-02-14T09:39:25;9.27;;;5.97;;
67721;SDS011;58309;45.292;11.820;2024-02-14T09:41:58;8.48;;;6.72;;
67721;SDS011;58309;45.292;11.820;2024-02-14T09:44:27;10.23;;;6.10;;
67721;SDS011;58309;45.292;11.820;2024-02-14T09:46:54;6.97;;;5.68;;
67721;SDS011;58309;45.292;11.820;2024-02-14T09:49:21;9.25;;;6.40;;
67721;SDS011;58309;45.292;11.820;2024-02-14T09:51:48;8.93;;;6.28;;
67721;SDS011;58309;45.292;11.820;2024-02-14T09:54:15;7.43;;;5.97;;
67721;SDS011;58309;45.292;11.820;2024-02-14T09:56:42;6.85;;;5.93;;
67721;SDS011;58309;45.292;11.820;2024-02-14T09:59:13;9.57;;;5.90;;
67721;SDS011;58309;45.292;11.820;2024-02-14T10:01:39;8.55;;;6.40;;
67721;SDS011;58309;45.292;11.820;2024-02-14T10:04:04;11.20;;;6.15;;
67721;SDS011;58309;45.292;11.820;2024-02-14T10:06:30;7.65;;;6.15;;
67721;SDS011;58309;45.292;11.820;2024-02-14T10:08:56;8.43;;;6.40;;
67721;SDS011;58309;45.292;11.820;2024-02-14T10:11:22;7.95;;;6.40;;
67721;SDS011;58309;45.292;11.820;2024-02-14T10:13:48;9.70;;;6.60;;
67721;SDS011;58309;45.292;11.820;2024-02-14T10:16:15;8.43;;;6.13;;
67721;SDS011;58309;45.292;11.820;2024-02-14T10:18:41;8.32;;;7.05;;
67721;SDS011;58309;45.292;11.820;2024-02-14T10:21:08;7.55;;;6.60;;
67721;SDS011;58309;45.292;11.820;2024-02-14T10:23:39;7.85;;;6.22;;
67721;SDS011;58309;45.292;11.820;2024-02-14T10:26:04;11.07;;;7.30;;
67721;SDS011;58309;45.292;11.820;2024-02-14T10:28:30;8.75;;;6.88;;
67721;SDS011;58309;45.292;11.820;2024-02-14T10:30:58;8.27;;;6.47;;
67721;SDS011;58309;45.292;11.820;2024-02-14T10:33:24;10.38;;;7.13;;
67721;SDS011;58309;45.292;11.820;2024-02-14T10:35:54;10.32;;;6.90;;
67721;SDS011;58309;45.292;11.820;2024-02-14T10:38:22;13.93;;;8.88;;
67721;SDS011;58309;45.292;11.820;2024-02-14T10:40:48;10.82;;;8.32;;
67721;SDS011;58309;45.292;11.820;2024-02-14T10:43:14;11.32;;;7.80;;
67721;SDS011;58309;45.292;11.820;2024-02-14T10:45:39;11.18;;;8.20;;
67721;SDS011;58309;45.292;11.820;2024-02-14T10:48:05;12.10;;;8.35;;
67721;SDS011;58309;45.292;11.820;2024-02-14T10:50:36;8.85;;;7.88;;
67721;SDS011;58309;45.292;11.820;2024-02-14T10:53:06;11.90;;;7.85;;
67721;SDS011;58309;45.292;11.820;2024-02-14T10:55:37;10.48;;;7.97;;
67721;SDS011;58309;45.292;11.820;2024-02-14T10:58:06;13.02;;;9.15;;
67721;SDS011;58309;45.292;11.820;2024-02-14T11:00:33;15.50;;;10.23;;
67721;SDS011;58309;45.292;11.820;2024-02-14T11:02:58;18.20;;;11.73;;
67721;SDS011;58309;45.292;11.820;2024-02-14T11:05:25;16.05;;;11.70;;
67721;SDS011;58309;45.292;11.820;2024-02-14T11:07:51;15.20;;;11.55;;
67721;SDS011;58309;45.292;11.820;2024-02-14T11:10:20;18.85;;;12.50;;
67721;SDS011;58309;45.292;11.820;2024-02-14T11:12:47;16.42;;;11.32;;
67721;SDS011;58309;45.292;11.820;2024-02-14T11:15:22;18.95;;;12.63;;
67721;SDS011;58309;45.292;11.820;2024-02-14T11:18:03;18.48;;;12.35;;
67721;SDS011;58309;45.292;11.820;2024-02-14T11:20:35;19.70;;;13.85;;
67721;SDS011;58309;45.292;11.820;2024-02-14T11:23:02;19.58;;;13.63;;
67721;SDS011;58309;45.292;11.820;2024-02-14T11:27:57;21.17;;;12.95;;
67721;SDS011;58309;45.292;11.820;2024-02-14T11:30:29;19.98;;;14.18;;
67721;SDS011;58309;45.292;11.820;2024-02-14T11:33:14;21.15;;;14.48;;
67721;SDS011;58309;45.292;11.820;2024-02-14T11:35:43;23.30;;;15.18;;
67721;SDS011;58309;45.292;11.820;2024-02-14T11:38:11;22.85;;;15.93;;
67721;SDS011;58309;45.292;11.820;2024-02-14T11:40:36;24.83;;;16.80;;
67721;SDS011;58309;45.292;11.820;2024-02-14T11:43:04;24.27;;;16.15;;
67721;SDS011;58309;45.292;11.820;2024-02-14T11:45:35;28.25;;;17.48;;
67721;SDS011;58309;45.292;11.820;2024-02-14T11:48:02;27.45;;;16.75;;
67721;SDS011;58309;45.292;11.820;2024-02-14T11:50:27;25.27;;;15.38;;
67721;SDS011;58309;45.292;11.820;2024-02-14T11:52:54;20.35;;;14.07;;
67721;SDS011;58309;45.292;11.820;2024-02-14T11:55:19;22.48;;;15.82;;
67721;SDS011;58309;45.292;11.820;2024-02-14T11:57:53;25.48;;;15.55;;
67721;SDS011;58309;45.292;11.820;2024-02-14T12:00:18;24.98;;;16.33;;
67721;SDS011;58309;45.292;11.820;2024-02-14T12:02:44;22.45;;;15.52;;
67721;SDS011;58309;45.292;11.820;2024-02-14T12:05:10;24.73;;;15.95;;
67721;SDS011;58309;45.292;11.820;2024-02-14T12:07:35;28.02;;;16.33;;
67721;SDS011;58309;45.292;11.820;2024-02-14T12:10:01;26.83;;;16.85;;
67721;SDS011;58309;45.292;11.820;2024-02-14T12:12:27;26.80;;;16.50;;
67721;SDS011;58309;45.292;11.820;2024-02-14T12:14:53;27.92;;;16.67;;
67721;SDS011;58309;45.292;11.820;2024-02-14T12:17:19;24.52;;;16.23;;
67721;SDS011;58309;45.292;11.820;2024-02-14T12:19:44;26.48;;;16.88;;
67721;SDS011;58309;45.292;11.820;2024-02-14T12:22:10;23.63;;;15.88;;
67721;SDS011;58309;45.292;11.820;2024-02-14T12:24:43;22.13;;;14.68;;
67721;SDS011;58309;45.292;11.820;2024-02-14T12:27:09;26.50;;;15.20;;
67721;SDS011;58309;45.292;11.820;2024-02-14T12:29:35;22.77;;;15.15;;
67721;SDS011;58309;45.292;11.820;2024-02-14T12:32:07;20.40;;;14.45;;
67721;SDS011;58309;45.292;11.820;2024-02-14T12:34:33;24.45;;;14.95;;
67721;SDS011;58309;45.292;11.820;2024-02-14T12:36:58;24.58;;;16.65;;
67721;SDS011;58309;45.292;11.820;2024-02-14T12:39:25;24.17;;;16.10;;
67721;SDS011;58309;45.292;11.820;2024-02-14T12:41:51;22.35;;;15.13;;
67721;SDS011;58309;45.292;11.820;2024-02-14T12:44:17;21.90;;;14.98;;
67721;SDS011;58309;45.292;11.820;2024-02-14T12:46:43;21.10;;;14.57;;
67721;SDS011;58309;45.292;11.820;2024-02-14T12:49:08;25.80;;;15.00;;
67721;SDS011;58309;45.292;11.820;2024-02-14T12:51:34;20.98;;;14.60;;
67721;SDS011;58309;45.292;11.820;2024-02-14T12:54:01;23.63;;;15.07;;
67721;SDS011;58309;45.292;11.820;2024-02-14T12:56:26;23.35;;;15.43;;
67721;SDS011;58309;45.292;11.820;2024-02-14T12:58:52;24.95;;;15.07;;
67721;SDS011;58309;45.292;11.820;2024-02-14T13:01:18;23.85;;;14.90;;
67721;SDS011;58309;45.292;11.820;2024-02-14T13:03:43;23.80;;;15.35;;
67721;SDS011;58309;45.292;11.820;2024-02-14T13:06:10;23.77;;;16.38;;
67721;SDS011;58309;45.292;11.820;2024-02-14T13:08:36;26.92;;;18.25;;
67721;SDS011;58309;45.292;11.820;2024-02-14T13:11:03;25.85;;;18.00;;
67721;SDS011;58309;45.292;11.820;2024-02-14T13:13:29;32.92;;;19.70;;
67721;SDS011;58309;45.292;11.820;2024-02-14T13:15:55;28.92;;;18.67;;
67721;SDS011;58309;45.292;11.820;2024-02-14T13:18:20;29.52;;;20.27;;
67721;SDS011;58309;45.292;11.820;2024-02-14T13:20:46;33.60;;;21.10;;
67721;SDS011;58309;45.292;11.820;2024-02-14T13:23:11;32.97;;;21.92;;
67721;SDS011;58309;45.292;11.820;2024-02-14T13:25:37;35.03;;;22.13;;
67721;SDS011;58309;45.292;11.820;2024-02-14T13:28:03;36.97;;;23.35;;
67721;SDS011;58309;45.292;11.820;2024-02-14T13:30:30;36.40;;;23.20;;
67721;SDS011;58309;45.292;11.820;2024-02-14T13:32:55;39.72;;;23.35;;
67721;SDS011;58309;45.292;11.820;2024-02-14T13:35:21;38.67;;;23.92;;
67721;SDS011;58309;45.292;11.820;2024-02-14T13:37:47;35.40;;;23.20;;
67721;SDS011;58309;45.292;11.820;2024-02-14T13:40:12;38.70;;;25.17;;
67721;SDS011;58309;45.292;11.820;2024-02-14T13:42:38;41.15;;;24.45;;
67721;SDS011;58309;45.292;11.820;2024-02-14T13:45:07;42.83;;;25.95;;
67721;SDS011;58309;45.292;11.820;2024-02-14T13:47:39;47.08;;;26.30;;
67721;SDS011;58309;45.292;11.820;2024-02-14T13:50:07;46.53;;;26.90;;
67721;SDS011;58309;45.292;11.820;2024-02-14T13:52:33;45.90;;;25.63;;
67721;SDS011;58309;45.292;11.820;2024-02-14T13:55:00;44.42;;;26.75;;
67721;SDS011;58309;45.292;11.820;2024-02-14T13:57:30;48.00;;;26.38;;
67721;SDS011;58309;45.292;11.820;2024-02-14T14:00:05;45.08;;;26.33;;
67721;SDS011;58309;45.292;11.820;2024-02-14T14:02:34;42.88;;;26.83;;
67721;SDS011;58309;45.292;11.820;2024-02-14T14:05:06;50.58;;;28.02;;
67721;SDS011;58309;45.292;11.820;2024-02-14T14:07:33;43.65;;;26.55;;
67721;SDS011;58309;45.292;11.820;2024-02-14T14:10:01;38.92;;;25.88;;
67721;SDS011;58309;45.292;11.820;2024-02-14T14:12:27;44.67;;;26.85;;